3º FECHA - El VILLICUM - SAN JUAN

Avatar de Usuario
Mati1983
Mensajes: 2640
Registrado: 23 Oct 2016, 13:41
Ubicación: Pehuajó - La Plata

3º FECHA - El VILLICUM - SAN JUAN

Mensaje por Mati1983 » 19 Abr 2019, 10:20

Horarios
Adjuntos
D4hL3mFXsAAG54G.jpg

Avatar de Usuario
fvizcay
Mensajes: 5958
Registrado: 24 Oct 2016, 11:24
Ubicación: Pigüé

Re: 3º FECHA - El VILLICUM - SAN JUAN

Mensaje por fvizcay » 19 Abr 2019, 15:30

1° ENTRENAMIENTO C2
Puesto Nro Piloto Marca Vtas Tiempo Dif.
1 14 Ever FRANETOVICH FIAT PALIO 7 2:00.866
2 77 Yamil APUD TOYOTA ETIOS 11 2:01.205 0.339
3 2 Juan P. PASTORI TOYOTA ETIOS 10 2:01.234 0.368
4 35 Diego LEANEZ TOYOTA ETIOS 9 2:01.251 0.385
5 11 Gaston IANSA FIESTA KINETIC 10 2:01.288 0.422
6 25 Sebastian PEREZ CHEVROLET ONIX 11 2:01.434 0.568
7 43 Walter LOPEZ NISSAN MARCH 12 2:01.522 0.656
8 18 Marcos FERNANDEZ NISSAN MARCH 10 2:01.657 0.791
9 120 Geronimo NU�EZ NISSAN MARCH 12 2:01.684 0.818
10 69 Agustin HERRERA RENAULT CLIO 11 2:01.823 0.957
11 32 Sergio FERNANDEZ NISSAN MARCH 9 2:01.855 0.989
12 27 Pablo ORTEGA RENAULT CLIO 12 2:01.892 1.026
13 8 Fernando AYALA RENAULT CLIO 11 2:01.941 1.075
14 70 Gabriel DA ROLD TOYOTA ETIOS 9 2:02.055 1.189
15 78 Alejandro WEIMANN CHEVROLET CORSA 10 2:02.070 1.204
16 5 Gaston GRASSO TOYOTA ETIOS 12 2:02.084 1.218
17 63 Renzo TESTA FIAT PALIO 11 2:02.101 1.235
18 111 Joel GASSMANN FIESTA KINETIC 9 2:02.267 1.401
19 46 Christian ABDALA TOYOTA ETIOS 10 2:02.348 1.482
20 28 Agustin LOPEZ DONZELLI RENAULT CLIO 11 2:02.375 1.509
21 31 Facundo LEANEZ TOYOTA ETIOS 8 2:02.389 1.523
22 26 Damian KIRSTEIN PEUGEOT 208 10 2:02.624 1.758
23 39 Alejandro VALDERREY FIAT PALIO 8 2:02.744 1.878
24 65 Fernando GOMEZ FREDES CHEVROLET CORSA 10 2:02.761 1.895
25 6 Miguel CIAURRO VW TREND 11 2:02.925 2.059
26 37 Sandro ABDALA NISSAN MARCH 12 2:02.929 2.063
27 1 Nicolas POSCO FIESTA KINETIC 9 2:02.982 2.116
28 64 Miguel ARGA�ARAZ RENAULT CLIO 10 2:03.158 2.292
29 141 Juan Pablo ROTONDO FIESTA KINETIC 10 2:03.333 2.467
30 54 Facundo ROTONDO FIESTA KINETIC 10 2:04.016 3.150
31 24 Juan I. CANELA TOYOTA ETIOS 10 2:04.084 3.218
32 36 Alejo BORGIANI VW TREND 9 2:04.437 3.571
33 13 Joel BORGOBELLO VW TREND 9 2:04.680 3.814
34 3 Julian LEPPHAILLE TOYOTA ETIOS 9 2:04.761 3.895
35 21 Gabriel SCORDIA FIESTA KINETIC 9 2:05.286 4.420
36 7 Maximiliano BESTANI NISSAN MARCH 5 2:05.831 4.965

Promedio del 1º 128.076 Km/h

Avatar de Usuario
fvizcay
Mensajes: 5958
Registrado: 24 Oct 2016, 11:24
Ubicación: Pigüé

Re: 3º FECHA - El VILLICUM - SAN JUAN

Mensaje por fvizcay » 20 Abr 2019, 08:27

2° ENTRENAMIENTO C2
Puesto Nro Piloto Marca Vtas Tiempo Dif.
1 14 Ever FRANETOVICH FIAT PALIO 8 2:00.003
2 6 Miguel CIAURRO VW TREND 8 2:00.202 0.199
3 8 Fernando AYALA RENAULT CLIO 9 2:00.439 0.436
4 2 Juan P. PASTORI TOYOTA ETIOS 7 2:00.530 0.527
5 11 Gaston IANSA FIESTA KINETIC 8 2:00.650 0.647
6 1 Nicolas POSCO FIESTA KINETIC 8 2:00.695 0.692
7 26 Damian KIRSTEIN PEUGEOT 208 10 2:00.703 0.700
8 25 Sebastian PEREZ CHEVROLET ONIX 10 2:00.735 0.732
9 18 Marcos FERNANDEZ NISSAN MARCH 10 2:00.781 0.778
10 63 Renzo TESTA FIAT PALIO 6 2:00.919 0.916
11 36 Alejo BORGIANI VW TREND 6 2:01.008 1.005
12 39 Alejandro VALDERREY FIAT PALIO 9 2:01.066 1.063
13 31 Facundo LEANEZ TOYOTA ETIOS 8 2:01.165 1.162
14 70 Gabriel DA ROLD TOYOTA ETIOS 7 2:01.167 1.164
15 120 Geronimo NU�EZ NISSAN MARCH 11 2:01.185 1.182
16 77 Yamil APUD TOYOTA ETIOS 9 2:01.262 1.259
17 35 Diego LEANEZ TOYOTA ETIOS 8 2:01.276 1.273
18 32 Sergio FERNANDEZ NISSAN MARCH 8 2:01.322 1.319
19 43 Walter LOPEZ NISSAN MARCH 8 2:01.520 1.517
20 21 Gabriel SCORDIA FIESTA KINETIC 8 2:01.551 1.548
21 13 Joel BORGOBELLO VW TREND 7 2:01.553 1.550
22 28 Agustin LOPEZ DONZELLI RENAULT CLIO 8 2:01.558 1.555
23 27 Pablo ORTEGA RENAULT CLIO 8 2:01.586 1.583
24 69 Agustin HERRERA RENAULT CLIO 9 2:01.728 1.725
25 3 Julian LEPPHAILLE TOYOTA ETIOS 9 2:01.761 1.758
26 111 Joel GASSMANN FIESTA KINETIC 7 2:01.813 1.810
27 65 Fernando GOMEZ FREDES CHEVROLET CORSA 9 2:01.831 1.828
28 78 Alejandro WEIMANN CHEVROLET CORSA 8 2:01.995 1.992
29 141 Juan Pablo ROTONDO FIESTA KINETIC 10 2:02.299 2.296
30 5 Gaston GRASSO TOYOTA ETIOS 2 2:02.429 2.426
31 54 Facundo ROTONDO FIESTA KINETIC 8 2:02.494 2.491
32 37 Sandro ABDALA NISSAN MARCH 10 2:02.537 2.534
33 7 Maximiliano BESTANI NISSAN MARCH 2 2:02.558 2.555
34 24 Juan I. CANELA TOYOTA ETIOS 8 2:02.941 2.938
35 64 Miguel ARGA�ARAZ RENAULT CLIO 9 2:03.590 3.587
36 46 Christian ABDALA TOYOTA ETIOS 4 2:05.782 5.779

Promedio del 1º 128.997 Km/h

Autos Nro. 1, 3, 5, 21, 24, 27, 37 y 69 Retiro de una vuelta por exceder limites de pista.

Avatar de Usuario
fvizcay
Mensajes: 5958
Registrado: 24 Oct 2016, 11:24
Ubicación: Pigüé

Re: 3º FECHA - El VILLICUM - SAN JUAN

Mensaje por fvizcay » 20 Abr 2019, 08:28

GENERAL ENTRENAMIENTO C2
Puesto Nro Piloto Marca Vtas Tiempo Dif.
1 14 Ever FRANETOVICH FIAT PALIO 2:00.003
2 6 Miguel CIAURRO VW TREND 2:00.202 0.199
3 8 Fernando AYALA RENAULT CLIO 2:00.439 0.436
4 2 Juan P. PASTORI TOYOTA ETIOS 2:00.530 0.527
5 11 Gaston IANSA FIESTA KINETIC 2:00.650 0.647
6 1 Nicolas POSCO FIESTA KINETIC 2:00.695 0.692
7 26 Damian KIRSTEIN PEUGEOT 208 2:00.703 0.700
8 25 Sebastian PEREZ CHEVROLET ONIX 2:00.735 0.732
9 18 Marcos FERNANDEZ NISSAN MARCH 2:00.781 0.778
10 63 Renzo TESTA FIAT PALIO 2:00.919 0.916
11 36 Alejo BORGIANI VW TREND 2:01.008 1.005
12 39 Alejandro VALDERREY FIAT PALIO 2:01.066 1.063
13 31 Facundo LEANEZ TOYOTA ETIOS 2:01.165 1.162
14 70 Gabriel DA ROLD TOYOTA ETIOS 2:01.167 1.164
15 120 Geronimo NU�EZ NISSAN MARCH 2:01.185 1.182
16 77 Yamil APUD TOYOTA ETIOS 2:01.205 1.202
17 35 Diego LEANEZ TOYOTA ETIOS 2:01.251 1.248
18 32 Sergio FERNANDEZ NISSAN MARCH 2:01.322 1.319
19 43 Walter LOPEZ NISSAN MARCH 2:01.520 1.517
20 21 Gabriel SCORDIA FIESTA KINETIC 2:01.551 1.548
21 13 Joel BORGOBELLO VW TREND 2:01.553 1.550
22 28 Agustin LOPEZ DONZELLI RENAULT CLIO 2:01.558 1.555
23 27 Pablo ORTEGA RENAULT CLIO 2:01.586 1.583
24 69 Agustin HERRERA RENAULT CLIO 2:01.728 1.725
25 3 Julian LEPPHAILLE TOYOTA ETIOS 2:01.761 1.758
26 111 Joel GASSMANN FIESTA KINETIC 2:01.813 1.810
27 65 Fernando GOMEZ FREDES CHEVROLET CORSA 2:01.831 1.828
28 78 Alejandro WEIMANN CHEVROLET CORSA 2:01.995 1.982
29 5 Gaston GRASSO TOYOTA ETIOS 2:02.084 2.081
30 141 Juan Pablo ROTONDO FIESTA KINETIC 2:02.299 2.296
31 46 Christian ABDALA TOYOTA ETIOS 2:02.348 2.345
32 54 Facundo ROTONDO FIESTA KINETIC 2:02.299 2.296
33 37 Sandro ABDALA NISSAN MARCH 2:02.537 2.534
34 7 Maximiliano BESTANI. NISSAN MARCH 2:02.558 2.555
35 24 Juan I. CANELA TOYOTA ETIOS 2:02.941 2.938
36 64 Miguel ARGA�ARAZ. RENAULT CLIO 2:03.158 3.155

Avatar de Usuario
fvizcay
Mensajes: 5958
Registrado: 24 Oct 2016, 11:24
Ubicación: Pigüé

Re: 3º FECHA - El VILLICUM - SAN JUAN

Mensaje por fvizcay » 20 Abr 2019, 08:28

GENERAL CLASIFICACIÓN C2
Puesto Nro Piloto Marca Vtas Tiempo Dif.
1 14 Ever FRANETOVICH FIAT PALIO 2 1:59.026
2 31 Facundo LEANEZ TOYOTA ETIOS 2 1:59.929 0.903
3 8 Fernando AYALA RENAULT CLIO 4 1:59.969 0.943
4 36 Alejo BORGIANI VW TREND 4 2:00.201 1.175
5 11 Gaston IANSA FIESTA KINETIC 4 2:00.204 1.178
6 25 Sebastian PEREZ CHEVROLET ONIX 3 2:00.245 1.219
7 2 Juan P. PASTORI TOYOTA ETIOS 4 2:00.246 1.220
8 32 Sergio FERNANDEZ NISSAN MARCH 4 2:00.333 1.307
9 13 Joel BORGOBELLO VW TREND 4 2:00.386 1.360
10 111 Joel GASSMANN FIESTA KINETIC 4 2:00.387 1.361
11 69 Agustin HERRERA RENAULT CLIO 3 2:00.464 1.438
12 6 Miguel CIAURRO VW TREND 4 2:00.559 1.533
13 3 Julian LEPPHAILLE TOYOTA ETIOS 3 2:00.576 1.550
14 43 Walter LOPEZ NISSAN MARCH 4 2:00.663 1.637
15 46 Christian ABDALA TOYOTA ETIOS 4 2:00.710 1.684
16 26 Damian KIRSTEIN PEUGEOT 208 4 2:00.754 1.728
17 63 Renzo TESTA FIAT PALIO 3 2:00.766 1.740
18 77 Yamil APUD TOYOTA ETIOS 4 2:00.801 1.775
19 1 Nicolas POSCO FIESTA KINETIC 4 2:00.808 1.782
20 35 Diego LEANEZ TOYOTA ETIOS 3 2:00.855 1.829
21 27 Pablo ORTEGA RENAULT CLIO 4 2:00.912 1.886
22 120 Geronimo NU�EZ NISSAN MARCH 4 2:00.942 1.916
23 28 Agustin LOPEZ DONZELLI RENAULT CLIO 4 2:00.947 1.921
24 37 Sandro ABDALA NISSAN MARCH 4 2:01.179 2.153
25 24 Juan I. CANELA TOYOTA ETIOS 4 2:01.220 2.194
26 5 Gaston GRASSO TOYOTA ETIOS 4 2:01.462 2.436
27 141 Juan Pablo ROTONDO FIESTA KINETIC 3 2:01.733 2.707
28 70 Gabriel DA ROLD TOYOTA ETIOS 3 2:02.085 3.059
29 65 Fernando GOMEZ FREDES CHEVROLET CORSA 3 2:02.118 3.092
30 21 Gabriel SCORDIA FIESTA KINETIC 3 2:02.236 3.210
31 54 Facundo ROTONDO FIESTA KINETIC 3 2:02.456 3.430
32 78 Alejandro WEIMANN CHEVROLET CORSA 4 2:02.752 3.726
33 39 Alejandro VALDERREY FIAT PALIO 4 2:03.285 4.259
34 7 Maximiliano BESTANI NISSAN MARCH 2 2:03.603 4.577
35 18 Marcos FERNANDEZ NISSAN MARCH 1 2:18.625 19.599
36 64 Miguel ARGA�ARAZ RENAULT CLIO 1 4:06.802 2:07.776

Promedio del 1º 130.056 Km/h

Autos Nro. 3 y 37 Retiro de una vuelta por exceder limites de pista.

Avatar de Usuario
fvizcay
Mensajes: 5958
Registrado: 24 Oct 2016, 11:24
Ubicación: Pigüé

Re: 3º FECHA - El VILLICUM - SAN JUAN

Mensaje por fvizcay » 20 Abr 2019, 08:29

Terrible vuelton de franetovich!

Avatar de Usuario
fvizcay
Mensajes: 5958
Registrado: 24 Oct 2016, 11:24
Ubicación: Pigüé

Re: 3º FECHA - El VILLICUM - SAN JUAN

Mensaje por fvizcay » 20 Abr 2019, 08:49

Dos que empiezan en esta fecha:

Fernando Gomez Fredes ( en su momento dos veces tercero en el campeoanto de la Clase 2, en los 2002 o 2003 creo) con el Corsa ex juanchi Torres
Imagen

Gabriel Da Rold, con Etios del JCB
Imagen

Avatar de Usuario
fvizcay
Mensajes: 5958
Registrado: 24 Oct 2016, 11:24
Ubicación: Pigüé

Re: 3º FECHA - El VILLICUM - SAN JUAN

Mensaje por fvizcay » 20 Abr 2019, 20:09

° ENTRENAMIENTO C3
Puesto Nro Piloto Marca Vtas Tiempo Dif.
1 5 Emanuel MORIATIS FORD FOCUS 9 1:55.592
2 68 Julian SANTERO FORD FOCUS 4 1:55.902 0.310
3 82 Mauricio LAMBIRIS TOYOTA COROLLA 10 1:56.532 0.940
4 92 Rudi BUNDZIAK C4 LOUNGE 5 1:56.618 1.026
5 9 Manuel URCERA NEW CIVIC 6 1:56.656 1.064
6 2 Facundo CHAPUR FORD FOCUS 10 1:56.853 1.261
7 14 Ezequiel BOSIO C4 LOUNGE 8 1:56.886 1.294
8 18 Matias MU�OZ MARCHESI FIAT TIPO 9 1:57.174 1.582
9 138 Luis Jose DI PALMA PEUGEOT 408 5 1:57.597 2.005
10 20 Juan PIPKIN CHEVROLET CRUZE 4 1:57.677 2.085
11 59 Emmanuel CACERES FORD FOCUS 10 1:57.684 2.092
12 72 Santiago ALVAREZ C4 LOUNGE 9 1:57.712 2.120
13 61 Diego NOCETI FORD FOCUS 11 1:57.905 2.313
14 21 Leandro CARDUCCI FORD FOCUS 6 1:57.939 2.347
15 77 Mariano PERNIA CHEVROLET CRUZE 7 1:57.952 2.360
16 99 Juan M. ELUCHANS CHEVROLET CRUZE 10 1:58.177 2.585
17 29 Juan P. ROSSOTTI VW VENTO 9 1:58.193 2.601
18 113 Luciano VENTRICELLI TOYOTA COROLLA 10 1:58.453 2.861
19 69 Esteban CISTOLA FORD FOCUS 5 1:58.620 3.028
20 123 Matias MENVIELLE CHEVROLET CRUZE 10 1:58.627 3.035
21 11 Jeronimo TETI CHEVROLET CRUZE 6 1:58.892 3.300
22 8 Fabian YANNANTUONI FIAT TIPO 6 1:59.000 3.408
23 22 Adrian PERCAZ FORD FOCUS 6 1:59.130 3.538
24 100 Carlos OKULOVICH NEW CIVIC 6 1:59.243 3.651
25 116 Christian BODRATO MIONETT FORD FOCUS 9 1:59.349 3.757
26 17 Alfonso DOMENECH FORD FOCUS 5 1:59.407 3.815
27 19 Leonel LARRAURI NEW CIVIC 8 1:59.506 3.914
28 95 Emanuel ABDALA TOYOTA COROLLA 5 1:59.670 4.078
29 15 Adrian CHIRIANO FORD FOCUS 5 1:59.876 4.284
30 25 Matias COHEN FORD FOCUS 10 2:00.330 4.738
31 6 Fabricio PEZZINI TOYOTA COROLLA 2 5:47.345 3:51.753

Promedio del 1º 133.919 Km/h

Auto Nro. 72 Retiro de una vuelta por exceder limites de pista.

Avatar de Usuario
fvizcay
Mensajes: 5958
Registrado: 24 Oct 2016, 11:24
Ubicación: Pigüé

Re: 3º FECHA - El VILLICUM - SAN JUAN

Mensaje por fvizcay » 20 Abr 2019, 20:10

° ENTRENAMIENTO C3
Puesto Nro Piloto Marca Vtas Tiempo Dif.
1 68 Julian SANTERO FORD FOCUS 8 1:55.407
2 9 Manuel URCERA NEW CIVIC 9 1:55.680 0.273
3 92 Rudi BUNDZIAK C4 LOUNGE 5 1:55.768 0.361
4 82 Mauricio LAMBIRIS TOYOTA COROLLA 8 1:55.861 0.454
5 138 Luis Jose DI PALMA PEUGEOT 408 9 1:56.030 0.623
6 6 Fabricio PEZZINI TOYOTA COROLLA 10 1:56.180 0.773
7 8 Fabian YANNANTUONI FIAT TIPO 10 1:56.198 0.791
8 5 Emanuel MORIATIS FORD FOCUS 7 1:56.450 1.043
9 100 Carlos OKULOVICH NEW CIVIC 9 1:56.626 1.219
10 15 Adrian CHIRIANO FORD FOCUS 11 1:56.702 1.295
11 11 Jeronimo TETI CHEVROLET CRUZE 8 1:56.761 1.354
12 72 Santiago ALVAREZ C4 LOUNGE 6 1:56.764 1.357
13 2 Facundo CHAPUR FORD FOCUS 4 1:56.789 1.382
14 20 Juan PIPKIN CHEVROLET CRUZE 9 1:56.870 1.463
15 95 Emanuel ABDALA TOYOTA COROLLA 11 1:56.949 1.542
16 77 Mariano PERNIA CHEVROLET CRUZE 10 1:57.173 1.766
17 21 Leandro CARDUCCI FORD FOCUS 9 1:57.402 1.995
18 59 Emmanuel CACERES FORD FOCUS 6 1:57.415 2.008
19 69 Esteban CISTOLA FORD FOCUS 8 1:57.576 2.169
20 17 Alfonso DOMENECH FORD FOCUS 9 1:57.723 2.316
21 18 Matias MU�OZ MARCHESI FIAT TIPO 5 1:57.859 2.452
22 29 Juan P. ROSSOTTI VW VENTO 7 1:57.885 2.478
23 99 Juan M. ELUCHANS CHEVROLET CRUZE 6 1:57.934 2.527
24 19 Leonel LARRAURI NEW CIVIC 7 1:57.957 2.550
25 123 Matias MENVIELLE CHEVROLET CRUZE 6 1:57.971 2.564
26 113 Luciano VENTRICELLI TOYOTA COROLLA 8 1:58.163 2.756
27 14 Ezequiel BOSIO C4 LOUNGE 5 1:58.166 2.759
28 22 Adrian PERCAZ FORD FOCUS 8 1:58.282 2.875
29 116 Christian BODRATO MIONETT FORD FOCUS 7 1:58.664 3.257
30 25 Matias COHEN FORD FOCUS 4 2:00.639 5.232
31 61 Diego NOCETI FORD FOCUS 2 4:32.443 2:37.036

Promedio del 1º 134.134 Km/h

Autos Nro. 8, 11, 17, 21, 82 y 100 Retiro de una vuelta por exceder limites de pista.

Avatar de Usuario
fvizcay
Mensajes: 5958
Registrado: 24 Oct 2016, 11:24
Ubicación: Pigüé

Re: 3º FECHA - El VILLICUM - SAN JUAN

Mensaje por fvizcay » 20 Abr 2019, 20:11

GENERAL ENTRENAMIENTO C3
Puesto Nro Piloto Marca Vtas Tiempo Dif.
1 68 Julian SANTERO FORD FOCUS 1:55.407
2 5 Emanuel MORIATIS FORD FOCUS 1:55.592 0.185
3 9 Manuel URCERA NEW CIVIC 1:55.680 0.273
4 92 Rudi BUNDZIAK C4 LOUNGE 1:55.768 0.361
5 82 Mauricio LAMBIRIS TOYOTA COROLLA 1:55.861 0.454
6 138 Luis Jose DI PALMA PEUGEOT 408 1:56.030 0.623
7 6 Fabricio PEZZINI TOYOTA COROLLA 1:56.180 0.773
8 8 Fabian YANNANTUONI FIAT TIPO 1:56.198 0.791
9 100 Carlos OKULOVIC NEW CIVIC 1:56.626 1.219
10 15 Adrian CHIRIANO FORD FOCUS 1:56.702 1.295
11 11 Jeronimo TETI CHEVROLET CRUZE 1:56.761 1.354
12 72 Santiago ALVAREZ C4 LOUNGE 1:56.764 1.357
13 2 Facundo CHAPUR FORD FOCUS 1:56.789 1.382
14 20 Juan PIPKIN CHEVROLET CRUZE 1:56.870 1.463
15 14 Ezequiel BOSIO C4 LOUNGE 1:56.886 1.479
16 95 Emanuel ABDALA TOYOTA COROLLA 1:56.949 1.542
17 77 Mariano PERNIA CHEVROLET CRUZE 1:57.173 1.766
18 18 Matias MUNOZ MARCHESI FIAT TIPO 1:57.174 1.767
19 21 Leandro CARDUCCI FORD FOCUS 1:57.402 1.995
20 59 Emmanuel CACERES FORD FOCUS 1:57.415 2.008
21 69 Esteban CISTOLA FORD FOCUS 1:57.576 2.169
22 17 Alfonso DOMENECH FORD FOCUS 1:57.723 2.316
23 29 Juan P. ROSSOTTI VW VENTO 1:57.885 2.478
24 61 Diego NOCETI FORD FOCUS 1:57.905 2.498
25 99 Juan M. ELUCHANS CHEVROLET CRUZE 1:57.934 2.527
26 19 Leonel LARRAURI NEW CIVIC 1:57.957 2.550
27 123 Matias MENVIELLE CHEVROLET CRUZE 1:57.971 2.564
28 113 Luciano VENTRICELLI TOYOTA COROLLA 1:58.163 2.756
29 22 Adrian PERCAZ FORD FOCUS 1:58.282 2.875
30 116 Christian BODRATO MIONETT FORD FOCUS 1:58.664 3.257
31 25 Matias COHEN FORD FOCUS 2:00.330 4.923

Responder